createdAt,value
2022-11-24T00:00:06.806Z,27.30
2022-11-24T00:02:55.050Z,26.10
2022-11-24T00:05:24.012Z,25.00
2022-11-24T00:07:52.313Z,25.60
2022-11-24T00:10:20.643Z,24.80
2022-11-24T00:12:48.926Z,26.10
2022-11-24T00:15:17.190Z,25.30
2022-11-24T00:17:45.549Z,24.90
2022-11-24T00:20:13.814Z,24.50
2022-11-24T00:22:42.349Z,23.60
2022-11-24T00:25:10.626Z,26.80
2022-11-24T00:27:38.817Z,26.40
2022-11-24T00:30:07.596Z,27.30
2022-11-24T00:32:36.090Z,27.40
2022-11-24T00:35:04.865Z,26.00
2022-11-24T00:37:33.071Z,25.20
2022-11-24T00:40:01.338Z,26.10
2022-11-24T00:42:29.882Z,26.10
2022-11-24T00:44:58.332Z,24.00
2022-11-24T00:47:29.092Z,22.60
2022-11-24T00:49:57.331Z,24.70
2022-11-24T00:52:25.527Z,25.40
2022-11-24T00:54:53.915Z,27.30
2022-11-24T00:57:22.257Z,26.10
2022-11-24T00:59:50.601Z,26.50
2022-11-24T01:02:18.749Z,26.10
2022-11-24T01:04:48.468Z,24.60
2022-11-24T01:07:16.361Z,24.20
2022-11-24T01:09:46.903Z,25.80
2022-11-24T01:12:15.572Z,22.90
2022-11-24T01:14:44.186Z,22.40
2022-11-24T01:17:12.350Z,24.50
2022-11-24T01:19:43.705Z,27.00
2022-11-24T01:22:13.812Z,25.00
2022-11-24T01:24:42.368Z,25.80
2022-11-24T01:27:13.885Z,25.70
2022-11-24T01:29:43.011Z,26.60
2022-11-24T01:32:11.193Z,25.60
2022-11-24T01:34:39.455Z,24.10
2022-11-24T01:37:07.602Z,22.70
2022-11-24T01:39:35.960Z,23.00
2022-11-24T01:42:04.556Z,24.10
2022-11-24T01:44:33.183Z,24.30
2022-11-24T01:47:19.987Z,24.20
2022-11-24T01:49:56.138Z,22.80
2022-11-24T01:52:47.446Z,22.20
2022-11-24T01:55:21.671Z,24.50
2022-11-24T01:57:58.689Z,21.80
2022-11-24T02:00:27.041Z,23.20
2022-11-24T02:02:56.477Z,21.20
2022-11-24T02:05:38.479Z,23.50
2022-11-24T02:08:13.206Z,23.50
2022-11-24T02:10:43.024Z,22.70
2022-11-24T02:13:13.390Z,24.90
2022-11-24T02:15:42.273Z,23.30
2022-11-24T02:18:10.739Z,22.90
2022-11-24T02:20:39.121Z,26.50
2022-11-24T02:23:38.047Z,25.10
2022-11-24T02:26:37.306Z,24.50
2022-11-24T02:31:35.121Z,25.90
2022-11-24T02:34:03.645Z,24.70
2022-11-24T02:36:31.849Z,23.40
2022-11-24T02:39:00.070Z,24.30
2022-11-24T02:41:29.446Z,25.30
2022-11-24T02:44:02.059Z,25.00
2022-11-24T02:46:30.530Z,23.80
2022-11-24T02:48:58.788Z,25.40
2022-11-24T02:51:27.002Z,25.60
2022-11-24T02:53:55.369Z,25.00
2022-11-24T02:56:23.577Z,24.90
2022-11-24T02:58:52.001Z,24.40
2022-11-24T03:01:20.519Z,25.70
2022-11-24T03:03:48.907Z,25.50
2022-11-24T03:06:17.132Z,25.40
2022-11-24T03:08:45.558Z,25.80
2022-11-24T03:11:13.760Z,27.00
2022-11-24T03:13:42.060Z,25.40
2022-11-24T03:16:10.729Z,26.60
2022-11-24T03:18:39.406Z,26.30
2022-11-24T03:21:10.783Z,25.80
2022-11-24T03:23:39.195Z,26.10
2022-11-24T03:26:13.108Z,27.30
2022-11-24T03:28:41.771Z,25.50
2022-11-24T03:31:10.957Z,25.70
2022-11-24T03:33:39.895Z,27.20
2022-11-24T03:36:08.699Z,30.00
2022-11-24T03:38:36.960Z,29.00
2022-11-24T03:41:05.296Z,36.90
2022-11-24T03:43:34.524Z,45.10
2022-11-24T03:46:05.064Z,39.70
2022-11-24T03:48:33.397Z,41.80
2022-11-24T03:51:03.510Z,39.90
2022-11-24T03:53:34.140Z,35.90
2022-11-24T03:56:03.076Z,32.50
2022-11-24T03:58:31.647Z,30.50
2022-11-24T04:01:00.024Z,30.10
2022-11-24T04:03:28.346Z,30.00
2022-11-24T04:05:56.722Z,31.10
2022-11-24T04:08:24.992Z,29.80
2022-11-24T04:10:54.761Z,32.60
2022-11-24T04:13:25.021Z,32.50
2022-11-24T04:15:53.807Z,30.20
2022-11-24T04:18:22.377Z,31.00
2022-11-24T04:20:51.688Z,30.90
2022-11-24T04:23:20.418Z,29.90
2022-11-24T04:25:49.105Z,28.30
2022-11-24T04:28:17.887Z,29.00
2022-11-24T04:31:05.737Z,26.50
2022-11-24T04:33:36.012Z,26.90
2022-11-24T04:36:09.851Z,28.70
2022-11-24T04:39:19.899Z,29.60
2022-11-24T04:41:28.250Z,31.30
2022-11-24T04:44:01.048Z,29.40
2022-11-24T04:46:40.020Z,29.40
2022-11-24T04:49:13.488Z,31.20
2022-11-24T04:51:49.203Z,31.10
2022-11-24T04:54:19.166Z,31.00
2022-11-24T04:56:58.016Z,27.80
2022-11-24T04:59:26.853Z,30.40
2022-11-24T05:01:59.786Z,28.00
2022-11-24T05:04:34.929Z,30.00
2022-11-24T05:07:21.869Z,29.20
2022-11-24T05:10:13.300Z,29.90
2022-11-24T05:12:49.953Z,30.30
2022-11-24T05:15:22.133Z,29.70
2022-11-24T05:17:51.622Z,27.60
2022-11-24T05:20:22.887Z,29.00
2022-11-24T05:22:51.844Z,28.00
2022-11-24T05:25:20.751Z,27.70
2022-11-24T05:27:48.915Z,28.20
2022-11-24T05:30:18.070Z,27.20
2022-11-24T05:32:49.857Z,28.10
2022-11-24T05:35:19.162Z,27.90
2022-11-24T05:40:19.632Z,26.90
2022-11-24T05:42:51.915Z,28.20
2022-11-24T05:45:29.576Z,27.10
2022-11-24T05:48:15.783Z,28.40
2022-11-24T05:50:44.412Z,28.30
2022-11-24T05:53:14.277Z,28.80
2022-11-24T05:55:43.693Z,27.70
2022-11-24T05:58:13.138Z,28.60
2022-11-24T06:00:46.463Z,27.80
2022-11-24T06:03:15.384Z,28.70
2022-11-24T06:05:47.810Z,26.60
2022-11-24T06:08:20.930Z,26.50
2022-11-24T06:10:50.733Z,27.80
2022-11-24T06:13:20.772Z,27.00
2022-11-24T06:15:50.822Z,29.70
2022-11-24T06:21:09.221Z,29.40
2022-11-24T06:23:41.006Z,32.30
2022-11-24T06:26:09.804Z,29.20
2022-11-24T06:28:39.529Z,27.90
2022-11-24T06:33:41.155Z,26.50
2022-11-24T06:36:13.266Z,27.90
2022-11-24T06:38:41.547Z,27.70
2022-11-24T06:41:15.530Z,25.20
2022-11-24T06:43:45.116Z,25.10
2022-11-24T06:46:21.357Z,26.20
2022-11-24T06:48:53.953Z,25.40
2022-11-24T06:51:21.818Z,27.70
2022-11-24T06:53:49.752Z,28.30
2022-11-24T06:56:22.445Z,28.10
2022-11-24T06:58:52.563Z,28.40
2022-11-24T07:01:24.271Z,27.70
2022-11-24T07:03:54.434Z,28.60
2022-11-24T07:06:24.101Z,28.70
2022-11-24T07:08:52.752Z,29.00
2022-11-24T07:11:22.853Z,30.60
2022-11-24T07:13:59.638Z,31.70
2022-11-24T07:16:28.700Z,32.80
2022-11-24T07:18:57.503Z,34.10
2022-11-24T07:21:27.764Z,34.20
2022-11-24T07:24:01.732Z,36.10
2022-11-24T07:26:39.346Z,37.00
2022-11-24T07:29:08.178Z,35.70
2022-11-24T07:31:54.886Z,36.50
2022-11-24T07:34:25.000Z,35.20
2022-11-24T07:37:05.472Z,35.20
2022-11-24T07:39:37.260Z,34.80
2022-11-24T07:42:18.604Z,33.80
2022-11-24T07:45:35.750Z,35.70
2022-11-24T07:48:15.450Z,31.20
2022-11-24T07:50:44.554Z,31.60
2022-11-24T07:53:12.837Z,31.70
2022-11-24T07:55:41.613Z,30.70
2022-11-24T07:58:09.801Z,32.70
2022-11-24T08:00:43.630Z,32.40
2022-11-24T08:03:13.058Z,32.40
2022-11-24T08:06:00.680Z,33.90
2022-11-24T08:08:33.430Z,32.20
2022-11-24T08:11:06.336Z,35.00
2022-11-24T08:13:37.864Z,29.30
2022-11-24T08:16:07.647Z,30.40
2022-11-24T08:18:38.769Z,30.50
2022-11-24T08:21:07.491Z,29.80
2022-11-24T08:23:35.383Z,33.30
2022-11-24T08:26:07.275Z,34.90
2022-11-24T08:28:36.527Z,35.60
2022-11-24T08:31:16.204Z,36.00
2022-11-24T08:33:47.033Z,35.90
2022-11-24T08:36:22.587Z,35.80
2022-11-24T08:38:56.589Z,34.20
2022-11-24T08:41:29.163Z,33.60
2022-11-24T08:43:59.033Z,35.80
2022-11-24T08:46:27.070Z,35.60
2022-11-24T08:48:56.221Z,35.90
2022-11-24T08:51:26.322Z,36.20
2022-11-24T08:53:56.878Z,36.20
2022-11-24T08:56:29.686Z,34.90
2022-11-24T08:59:00.811Z,35.00
2022-11-24T09:01:33.035Z,35.20
2022-11-24T09:04:02.124Z,37.10
2022-11-24T09:06:32.785Z,37.60
2022-11-24T09:09:01.792Z,36.80
2022-11-24T09:11:31.495Z,38.80
2022-11-24T09:14:08.383Z,33.40
2022-11-24T09:16:44.515Z,32.70
2022-11-24T09:19:12.864Z,33.90
2022-11-24T09:21:41.606Z,33.40
2022-11-24T09:24:10.550Z,34.10
2022-11-24T09:26:43.061Z,33.50
2022-11-24T09:29:16.419Z,31.60
2022-11-24T09:31:44.701Z,33.30
2022-11-24T09:34:17.710Z,34.10
2022-11-24T09:36:45.810Z,31.90
2022-11-24T09:39:14.110Z,32.50
2022-11-24T09:44:42.488Z,27.80
2022-11-24T09:47:22.518Z,34.70
2022-11-24T09:50:04.193Z,32.40
2022-11-24T09:53:02.135Z,31.20
2022-11-24T09:55:49.828Z,32.10
2022-11-24T09:58:48.625Z,32.70
2022-11-24T10:01:28.715Z,31.40
2022-11-24T10:04:02.619Z,32.80
2022-11-24T10:06:47.635Z,29.80
2022-11-24T10:09:40.850Z,32.00
2022-11-24T10:12:21.864Z,30.00
2022-11-24T10:15:19.299Z,31.50
2022-11-24T10:18:17.261Z,33.30
2022-11-24T10:21:04.226Z,33.20
2022-11-24T10:23:47.728Z,32.90
2022-11-24T10:26:30.064Z,31.90
2022-11-24T10:28:58.116Z,27.50
2022-11-24T10:31:41.950Z,31.30
2022-11-24T10:34:21.171Z,32.80
2022-11-24T10:37:11.340Z,31.10
2022-11-24T10:39:51.515Z,32.30
2022-11-24T10:42:31.757Z,31.60
2022-11-24T10:45:11.861Z,30.60
2022-11-24T10:47:43.444Z,28.70
2022-11-24T10:50:43.868Z,29.10
2022-11-24T10:53:16.835Z,29.00
2022-11-24T10:55:57.600Z,30.50
2022-11-24T10:58:37.315Z,31.90
2022-11-24T11:01:15.563Z,32.60
2022-11-24T11:03:56.909Z,33.10
2022-11-24T11:06:32.188Z,32.50
2022-11-24T11:09:07.339Z,31.60
2022-11-24T11:11:36.918Z,33.40
2022-11-24T11:14:13.260Z,34.20
2022-11-24T11:16:55.808Z,32.60
2022-11-24T11:19:49.487Z,32.80
2022-11-24T11:22:24.252Z,30.80
2022-11-24T11:25:20.119Z,33.70
2022-11-24T11:27:49.764Z,31.50
2022-11-24T11:36:16.900Z,34.10
2022-11-24T11:38:47.053Z,33.20
2022-11-24T11:41:22.404Z,33.30
2022-11-24T11:43:56.812Z,33.70
2022-11-24T11:46:32.816Z,30.70
2022-11-24T11:49:00.832Z,31.40
2022-11-24T11:55:14.699Z,32.00
2022-11-24T11:58:01.783Z,31.90
2022-11-24T12:00:33.619Z,30.10
2022-11-24T12:03:16.688Z,32.90
2022-11-24T12:05:58.955Z,33.80
2022-11-24T12:09:18.046Z,33.30
2022-11-24T12:12:03.759Z,32.60
2022-11-24T12:14:44.738Z,29.30
2022-11-24T12:17:53.101Z,31.40
2022-11-24T12:20:39.889Z,33.30
2022-11-24T12:23:33.115Z,34.60
2022-11-24T12:26:15.280Z,34.30
2022-11-24T12:28:58.388Z,33.60
2022-11-24T12:31:45.827Z,32.60
2022-11-24T12:34:39.049Z,32.90
2022-11-24T12:37:36.344Z,31.60
2022-11-24T12:40:24.013Z,34.10
2022-11-24T12:43:24.853Z,33.30
2022-11-24T12:46:19.785Z,32.10
2022-11-24T12:49:06.406Z,31.50
2022-11-24T12:51:46.408Z,27.70
2022-11-24T12:54:17.670Z,30.20
2022-11-24T12:57:07.889Z,33.40
2022-11-24T12:59:56.528Z,24.70
2022-11-24T13:03:03.674Z,36.10
2022-11-24T13:05:59.545Z,35.50
2022-11-24T13:08:28.930Z,36.00
2022-11-24T13:13:59.716Z,36.40
2022-11-24T13:16:38.745Z,36.50
2022-11-24T13:19:20.178Z,37.50
2022-11-24T13:21:56.559Z,37.40
2022-11-24T13:24:36.914Z,30.40
2022-11-24T13:27:18.895Z,31.60
2022-11-24T13:29:48.384Z,33.40
2022-11-24T13:32:19.753Z,36.40
2022-11-24T13:34:49.765Z,35.00
2022-11-24T13:37:31.898Z,35.00
2022-11-24T13:40:23.787Z,35.00
2022-11-24T13:42:54.369Z,34.00
2022-11-24T13:45:53.007Z,35.90
2022-11-24T13:48:21.951Z,35.10
2022-11-24T13:50:50.594Z,34.10
2022-11-24T13:53:42.564Z,35.00
2022-11-24T13:56:13.569Z,30.10
2022-11-24T13:58:46.253Z,26.50
2022-11-24T14:01:19.479Z,25.90
2022-11-24T14:04:28.001Z,27.70
2022-11-24T14:06:46.361Z,26.70
2022-11-24T14:09:26.484Z,29.10
2022-11-24T14:12:12.809Z,27.50
2022-11-24T14:14:42.034Z,27.40
2022-11-24T14:17:20.165Z,27.40
2022-11-24T14:19:50.323Z,25.80
2022-11-24T14:22:21.669Z,25.80
2022-11-24T14:24:54.780Z,25.40
2022-11-24T14:27:29.706Z,25.10
2022-11-24T14:30:02.252Z,25.90
2022-11-24T14:32:30.204Z,25.80
2022-11-24T14:34:58.027Z,28.50
2022-11-24T14:37:26.069Z,29.30
2022-11-24T14:39:56.333Z,28.80
2022-11-24T14:42:25.808Z,28.90
2022-11-24T14:47:31.292Z,33.20
2022-11-24T14:50:22.984Z,32.00
2022-11-24T14:52:56.650Z,32.60
2022-11-24T14:55:26.121Z,31.20
2022-11-24T14:57:56.692Z,31.70
2022-11-24T15:00:24.792Z,36.20
2022-11-24T15:03:01.630Z,33.00
2022-11-24T15:05:51.534Z,33.00
2022-11-24T15:08:19.865Z,33.00
2022-11-24T15:10:48.329Z,29.00
2022-11-24T15:13:22.797Z,30.70
2022-11-24T15:16:01.811Z,30.50
2022-11-24T15:18:38.966Z,31.30
2022-11-24T15:21:07.079Z,33.20
2022-11-24T15:23:36.254Z,32.20
2022-11-24T15:26:04.227Z,30.30
2022-11-24T15:28:33.459Z,30.30
2022-11-24T15:31:04.157Z,30.20
2022-11-24T15:33:32.224Z,31.80
2022-11-24T15:36:00.158Z,30.30
2022-11-24T15:38:27.922Z,30.40
2022-11-24T15:41:00.225Z,31.50
2022-11-24T15:43:38.682Z,32.60
2022-11-24T15:46:09.015Z,33.00
2022-11-24T15:48:37.095Z,32.50
2022-11-24T15:51:13.825Z,29.00
2022-11-24T15:53:48.071Z,30.90
2022-11-24T15:56:36.935Z,34.20
2022-11-24T15:59:04.907Z,35.10
2022-11-24T16:01:34.449Z,33.60
2022-11-24T16:04:02.767Z,34.00
2022-11-24T16:06:31.018Z,32.60
2022-11-24T16:08:59.164Z,34.20
2022-11-24T16:11:27.566Z,30.80
2022-11-24T16:13:55.462Z,32.10
2022-11-24T16:16:25.212Z,32.60
2022-11-24T16:18:54.053Z,32.00
2022-11-24T16:21:21.893Z,31.10
2022-11-24T16:23:49.647Z,30.30
2022-11-24T16:26:17.586Z,29.00
2022-11-24T16:28:46.046Z,29.80
2022-11-24T16:31:16.091Z,32.50
2022-11-24T16:33:47.769Z,30.80
2022-11-24T16:36:15.503Z,31.40
2022-11-24T16:38:43.758Z,28.70
2022-11-24T16:41:11.956Z,29.80
2022-11-24T16:43:40.070Z,32.20
2022-11-24T16:46:16.069Z,32.90
2022-11-24T16:48:45.739Z,33.60
2022-11-24T16:51:14.347Z,33.80
2022-11-24T16:53:42.971Z,38.90
2022-11-24T16:56:10.876Z,40.40
2022-11-24T16:58:40.245Z,38.70
2022-11-24T17:01:13.885Z,37.60
2022-11-24T17:03:42.202Z,38.80
2022-11-24T17:06:12.339Z,40.40
2022-11-24T17:08:41.423Z,40.30
2022-11-24T17:11:23.828Z,34.10
2022-11-24T17:13:52.152Z,34.00
2022-11-24T17:16:22.284Z,34.60
2022-11-24T17:18:50.495Z,31.70
2022-11-24T17:21:23.920Z,32.10
2022-11-24T17:23:56.893Z,30.90
2022-11-24T17:26:25.530Z,31.40
2022-11-24T17:28:54.120Z,35.60
2022-11-24T17:31:24.432Z,36.10
2022-11-24T17:33:57.845Z,37.60
2022-11-24T17:36:27.204Z,32.40
2022-11-24T17:41:23.386Z,41.10
2022-11-24T17:43:58.187Z,43.30
2022-11-24T17:46:27.913Z,43.40
2022-11-24T17:48:56.055Z,41.30
2022-11-24T17:51:25.514Z,43.40
2022-11-24T17:56:24.583Z,44.10
2022-11-24T17:58:58.006Z,44.70
2022-11-24T18:01:28.609Z,48.50
2022-11-24T18:03:57.251Z,46.50
2022-11-24T18:06:25.811Z,47.90
2022-11-24T18:08:54.217Z,49.80
2022-11-24T18:11:30.626Z,47.20
2022-11-24T18:14:02.524Z,48.80
2022-11-24T18:16:33.072Z,49.80
2022-11-24T18:19:11.455Z,46.40
2022-11-24T18:21:41.346Z,45.10
2022-11-24T18:24:11.273Z,44.90
2022-11-24T18:26:40.669Z,47.10
2022-11-24T18:29:09.361Z,46.20
2022-11-24T18:31:38.062Z,49.10
2022-11-24T18:34:06.273Z,50.40
2022-11-24T18:36:34.988Z,53.30
2022-11-24T18:39:08.907Z,48.90
2022-11-24T18:41:36.913Z,51.10
2022-11-24T18:44:08.239Z,44.50
2022-11-24T18:46:37.932Z,45.50
2022-11-24T18:49:07.132Z,44.60
2022-11-24T18:51:36.055Z,44.20
2022-11-24T18:54:05.868Z,44.50
2022-11-24T18:56:34.969Z,45.30
2022-11-24T18:59:02.746Z,44.70
2022-11-24T19:01:31.000Z,41.70
2022-11-24T19:04:01.785Z,39.80
2022-11-24T19:06:33.610Z,36.60
2022-11-24T19:09:07.893Z,34.20
2022-11-24T19:11:37.895Z,35.50
2022-11-24T19:14:07.148Z,39.60
2022-11-24T19:19:03.987Z,43.00
2022-11-24T19:21:33.824Z,41.40
2022-11-24T19:24:05.422Z,46.80
2022-11-24T19:26:37.074Z,50.90
2022-11-24T19:29:06.353Z,67.70
2022-11-24T19:31:35.153Z,45.10
2022-11-24T19:34:03.590Z,46.60
2022-11-24T19:36:33.621Z,48.00
2022-11-24T19:39:05.095Z,47.10
2022-11-24T19:41:33.648Z,47.00
2022-11-24T19:44:01.389Z,45.20
2022-11-24T19:46:30.298Z,41.50
2022-11-24T19:49:02.321Z,42.00
2022-11-24T19:51:35.107Z,45.50
2022-11-24T19:54:04.846Z,43.70
2022-11-24T19:56:36.220Z,47.80
2022-11-24T19:59:06.012Z,46.50
2022-11-24T20:01:39.881Z,44.40
2022-11-24T20:04:11.416Z,42.80
2022-11-24T20:06:41.901Z,40.50
2022-11-24T20:09:12.271Z,43.50
2022-11-24T20:11:41.193Z,44.10
2022-11-24T20:14:12.145Z,43.30
2022-11-24T20:16:40.685Z,46.40
2022-11-24T20:19:12.399Z,46.00
2022-11-24T20:21:41.718Z,39.70
2022-11-24T20:24:15.715Z,38.90
2022-11-24T20:26:50.084Z,39.40
2022-11-24T20:29:19.171Z,42.10
2022-11-24T20:31:49.934Z,43.00
2022-11-24T20:34:18.999Z,46.40
2022-11-24T20:36:47.725Z,46.30
2022-11-24T20:39:20.175Z,46.00
2022-11-24T20:41:48.052Z,43.90
2022-11-24T20:44:17.856Z,46.10
2022-11-24T20:46:46.694Z,46.40
2022-11-24T20:49:16.847Z,42.00
2022-11-24T20:51:47.892Z,43.10
2022-11-24T20:54:18.148Z,45.90
2022-11-24T20:56:47.466Z,45.10
2022-11-24T20:59:18.459Z,44.80
2022-11-24T21:01:47.906Z,46.30
2022-11-24T21:06:45.314Z,45.60
2022-11-24T21:09:13.105Z,43.80
2022-11-24T21:11:41.231Z,44.20
2022-11-24T21:14:10.397Z,45.80
2022-11-24T21:16:40.169Z,41.30
2022-11-24T21:19:13.075Z,42.40
2022-11-24T21:21:42.650Z,41.90
2022-11-24T21:24:18.408Z,44.00
2022-11-24T21:26:51.226Z,45.80
2022-11-24T21:29:22.180Z,42.30
2022-11-24T21:31:50.132Z,45.00
2022-11-24T21:34:19.458Z,45.90
2022-11-24T21:36:47.986Z,41.40
2022-11-24T21:39:16.310Z,42.60
2022-11-24T21:41:44.489Z,43.00
2022-11-24T21:44:13.600Z,37.80
2022-11-24T21:46:49.704Z,39.70
2022-11-24T21:49:22.085Z,39.60
2022-11-24T21:51:55.375Z,41.30
2022-11-24T21:54:23.946Z,40.00
2022-11-24T21:56:53.219Z,39.00
2022-11-24T21:59:21.917Z,37.50
2022-11-24T22:01:49.939Z,38.00
2022-11-24T22:04:17.893Z,37.00
2022-11-24T22:06:45.594Z,41.50
2022-11-24T22:09:17.699Z,41.70
2022-11-24T22:11:46.526Z,46.50
2022-11-24T22:14:14.465Z,44.50
2022-11-24T22:16:42.292Z,46.90
2022-11-24T22:19:10.256Z,41.10
2022-11-24T22:21:38.130Z,40.40
2022-11-24T22:24:06.080Z,38.70
2022-11-24T22:26:33.746Z,40.20
2022-11-24T22:29:01.770Z,43.60
2022-11-24T22:31:32.221Z,40.40
2022-11-24T22:34:00.943Z,42.00
2022-11-24T22:36:30.234Z,42.90
2022-11-24T22:39:04.090Z,41.30
2022-11-24T22:41:34.046Z,42.20
2022-11-24T22:44:02.496Z,42.60
2022-11-24T22:46:31.310Z,46.60
2022-11-24T22:49:00.845Z,47.70
2022-11-24T22:51:32.492Z,45.90
2022-11-24T22:54:02.638Z,49.30
2022-11-24T22:56:33.597Z,41.40
2022-11-24T22:59:02.591Z,41.60
2022-11-24T23:01:33.853Z,44.30
2022-11-24T23:04:03.731Z,36.10
2022-11-24T23:06:33.120Z,42.80
2022-11-24T23:09:02.712Z,33.20
2022-11-24T23:11:37.661Z,38.70
2022-11-24T23:14:08.749Z,33.80
2022-11-24T23:16:36.802Z,36.50
2022-11-24T23:19:05.194Z,39.20
2022-11-24T23:21:36.119Z,36.80
2022-11-24T23:24:04.547Z,31.50
2022-11-24T23:26:36.574Z,30.60
2022-11-24T23:29:05.680Z,25.70
2022-11-24T23:31:33.994Z,27.60
2022-11-24T23:34:03.510Z,29.30
2022-11-24T23:36:32.698Z,33.50
2022-11-24T23:39:10.992Z,35.30
2022-11-24T23:41:39.144Z,35.20
2022-11-24T23:44:07.713Z,32.40
2022-11-24T23:46:35.577Z,32.60
2022-11-24T23:49:03.622Z,31.60
2022-11-24T23:51:32.924Z,32.10
2022-11-24T23:56:46.776Z,28.60
2022-11-24T23:59:17.384Z,29.00
